Decoded Metar for KNSE (MILTON in FL, USA) (IATA:NSE) | Meteo·Mobile Aviation Weather
aviador You're here:

KNSE Decoded Metar

MILTON in FL, USA
Report Time2019-03-21 00:56:00
UTC Time2019-03-21 01:17:55
Flight Rules vfr VFR
Wind230° at 05 kt
W.Decomp.*RWY 23: 5.0 kt HW 0.2 kt RCW
RWY 32: 0.2 kt HW 5 kt LCW
W.Rank230° ranks 28
Current wind is below 230° avg. (6.0)
Visibility9999 m
Phenomena:N/A
Clouds:N/A
Expected CloudBase > 2,800 ft AGL from Temp-Dew spread
CeilingNone
Temp13°C (ISA -2)
Dew Point06°C (63% RH)
AAT10.3°C
QNH1019 hPa
Density Alt-66 ft
Elevation200 ft
Report Wrong Elevation
Raw Report
KNSE 210056Z 23005KT 10SM CLR 13/06 A3010 RMK AO2 SLP179 T01280061
$=

Extra information for KNSE:More info

Metar Taf Metar & Taf Last 4 Metars F.Rules Stats Wind Profile Meteogram Temp Stats Airport Information Weather charts Add Link Nearby VenuesMetar ALERT Operation Metar Decoded Social comments

AIRNAV info for KNSE